Time;durP1;ratioP1;P1;durP2;ratioP2;P2;SDS_P1;SDS_P2;PMS_P1;PMS_P2;Temp;Humidity;BMP_temperature;BMP_pressure;BME280_temperature;BME280_humidity;BME280_pressure;Samples;Min_cycle;Max_cycle;Signal;HPM_P1;HPM_P2
2022/06/26 00:01:38;;;;;;;3.17;0.77;;;;;;;9.67;100.00;100275.28;6116056;23;20006;-45
2022/06/26 00:04:03;;;;;;;1.08;0.60;;;;;;;9.65;100.00;100269.34;6114743;23;20018;-43
2022/06/26 00:06:29;;;;;;;0.95;0.38;;;;;;;9.56;100.00;100278.47;6116480;23;20013;-43
2022/06/26 00:08:54;;;;;;;1.52;0.22;;;;;;;9.50;100.00;100281.84;6117483;23;20014;-45
2022/06/26 00:11:20;;;;;;;1.35;0.32;;;;;;;9.48;100.00;100279.41;6116364;23;20006;-42
2022/06/26 00:13:46;;;;;;;2.28;0.40;;;;;;;9.46;100.00;100275.31;6117999;23;20009;-43
2022/06/26 00:16:11;;;;;;;4.13;0.95;;;;;;;9.48;100.00;100268.81;6115487;23;20013;-44
2022/06/26 00:18:37;;;;;;;2.35;0.38;;;;;;;9.49;100.00;100269.63;6116675;23;20456;-44
2022/06/26 00:21:03;;;;;;;3.60;0.38;;;;;;;9.61;100.00;100268.13;6117110;23;20101;-42
2022/06/26 00:23:29;;;;;;;0.93;0.28;;;;;;;9.63;100.00;100278.50;6119019;23;20014;-42
2022/06/26 00:25:54;;;;;;;2.13;0.30;;;;;;;9.56;100.00;100273.97;6118737;23;20076;-44
2022/06/26 00:28:19;;;;;;;2.88;0.20;;;;;;;9.54;100.00;100273.34;6119742;23;20069;-47
2022/06/26 00:30:45;;;;;;;1.95;0.75;;;;;;;9.52;100.00;100279.81;6119099;23;20447;-42
2022/06/26 00:33:11;;;;;;;2.15;1.27;;;;;;;9.48;100.00;100274.09;6119128;23;19998;-45
2022/06/26 00:35:36;;;;;;;4.75;1.30;;;;;;;9.48;100.00;100278.59;6120313;23;20017;-45
2022/06/26 00:38:02;;;;;;;0.88;0.20;;;;;;;9.51;100.00;100283.50;6120309;23;20129;-42
2022/06/26 00:40:27;;;;;;;4.95;0.20;;;;;;;9.47;100.00;100280.38;6120080;23;20341;-44
2022/06/26 00:42:52;;;;;;;5.38;1.88;;;;;;;9.38;100.00;100279.69;6119778;23;20009;-45
2022/06/26 00:45:18;;;;;;;1.95;1.10;;;;;;;9.31;100.00;100272.69;6120963;23;20010;-45
2022/06/26 00:47:43;;;;;;;0.25;0.10;;;;;;;9.25;100.00;100274.28;6119410;23;20108;-45
2022/06/26 00:50:09;;;;;;;0.68;0.30;;;;;;;9.23;100.00;100278.94;6119552;23;20060;-44
2022/06/26 00:52:37;;;;;;;0.45;0.20;;;;;;;9.25;100.00;100284.03;6117716;23;20016;-45
2022/06/26 00:55:03;;;;;;;1.30;0.40;;;;;;;9.26;100.00;100281.19;6118271;23;20013;-41
2022/06/26 00:57:29;;;;;;;4.10;0.57;;;;;;;9.27;100.00;100284.69;6119268;23;20044;-42
2022/06/26 00:59:56;;;;;;;4.60;0.75;;;;;;;9.28;100.00;100283.66;6118340;23;20034;-43
2022/06/26 01:02:22;;;;;;;1.08;0.40;;;;;;;9.22;100.00;100287.06;6120743;23;20002;-44
2022/06/26 01:04:47;;;;;;;1.77;1.48;;;;;;;9.20;100.00;100287.25;6120031;23;20424;-45
2022/06/26 01:07:13;;;;;;;4.45;1.60;;;;;;;9.23;100.00;100292.16;6120589;23;20416;-48
2022/06/26 01:09:39;;;;;;;6.18;1.70;;;;;;;9.30;100.00;100293.06;6120662;23;20360;-46
2022/06/26 01:12:06;;;;;;;3.65;0.55;;;;;;;9.30;100.00;100289.59;6120266;23;20017;-50
2022/06/26 01:14:31;;;;;;;2.97;0.55;;;;;;;9.22;100.00;100285.25;6120140;23;20181;-42
2022/06/26 01:16:59;;;;;;;2.88;0.25;;;;;;;9.23;100.00;100288.69;6121151;23;20010;-44
2022/06/26 01:19:25;;;;;;;2.40;0.43;;;;;;;9.24;100.00;100288.53;6118190;23;20077;-42
2022/06/26 01:21:50;;;;;;;2.70;0.90;;;;;;;9.21;100.00;100278.28;6120977;23;20017;-42
2022/06/26 01:24:16;;;;;;;4.55;0.60;;;;;;;9.23;100.00;100289.50;6121032;23;20081;-45
2022/06/26 01:26:41;;;;;;;8.90;0.35;;;;;;;9.25;100.00;100284.84;6119238;23;20010;-43
2022/06/26 01:29:07;;;;;;;2.05;0.20;;;;;;;9.23;100.00;100281.56;6119521;23;20017;-43
2022/06/26 01:31:34;;;;;;;2.47;0.20;;;;;;;9.12;100.00;100282.88;6120970;23;20069;-41
2022/06/26 01:34:09;;;;;;;0.85;0.28;;;;;;;9.15;100.00;100290.44;6118183;23;20017;-43
2022/06/26 01:36:35;;;;;;;8.13;1.23;;;;;;;9.19;100.00;100288.25;6121220;23;20448;-44
2022/06/26 01:39:02;;;;;;;6.07;1.90;;;;;;;9.20;100.00;100281.94;6119843;23;20017;-42
2022/06/26 01:41:28;;;;;;;7.07;0.70;;;;;;;9.23;100.00;100292.16;6120428;23;20025;-45
2022/06/26 01:43:53;;;;;;;11.95;0.40;;;;;;;9.24;100.00;100285.03;6119701;23;20440;-42
2022/06/26 01:46:20;;;;;;;5.05;1.45;;;;;;;9.22;100.00;100287.88;6118363;23;20077;-45
2022/06/26 01:48:45;;;;;;;3.15;0.63;;;;;;;9.18;100.00;100287.41;6119727;23;20098;-45
2022/06/26 01:51:11;;;;;;;4.97;0.60;;;;;;;9.18;100.00;100289.25;6121021;23;20043;-44
2022/06/26 01:53:36;;;;;;;3.05;0.30;;;;;;;9.10;100.00;100284.88;6118825;23;20010;-42
2022/06/26 01:56:05;;;;;;;2.97;1.02;;;;;;;9.08;100.00;100296.66;6120507;23;20002;-47
2022/06/26 01:58:32;;;;;;;0.30;0.28;;;;;;;9.04;100.00;100290.13;6120615;23;20017;-44
2022/06/26 02:00:58;;;;;;;1.80;0.13;;;;;;;9.05;100.00;100289.09;6119997;23;20014;-42
2022/06/26 02:03:24;;;;;;;3.33;0.20;;;;;;;8.99;100.00;100293.31;6119791;23;20089;-42
2022/06/26 02:05:50;;;;;;;2.22;1.05;;;;;;;8.98;100.00;100291.66;6118915;23;20068;-46
2022/06/26 02:08:16;;;;;;;4.93;0.20;;;;;;;9.01;100.00;100290.47;6120048;23;20101;-45
2022/06/26 02:13:39;;;;;;;2.92;0.75;;;;;;;8.92;100.00;100284.47;6119167;23;20124;-43
2022/06/26 02:16:13;;;;;;;1.27;0.30;;;;;;;8.86;100.00;100282.56;6118843;23;20044;-43
2022/06/26 02:18:41;;;;;;;1.40;0.10;;;;;;;8.83;100.00;100288.22;6117833;23;20014;-44
2022/06/26 02:21:08;;;;;;;0.47;0.47;;;;;;;8.85;100.00;100284.38;6120527;23;20013;-47
2022/06/26 02:23:36;;;;;;;0.20;0.20;;;;;;;8.84;100.00;100285.41;6118435;23;20101;-44
2022/06/26 02:26:04;;;;;;;4.55;1.17;;;;;;;8.87;100.00;100284.19;6120735;23;20009;-45
2022/06/26 02:28:29;;;;;;;0.85;0.30;;;;;;;8.85;100.00;100281.72;6118622;23;20010;-42
2022/06/26 02:30:55;;;;;;;2.88;0.17;;;;;;;8.78;100.00;100283.50;6118488;23;20030;-44
2022/06/26 02:33:22;;;;;;;2.33;0.57;;;;;;;8.77;100.00;100284.47;6121574;23;20089;-43
2022/06/26 02:35:48;;;;;;;1.10;0.22;;;;;;;8.77;100.00;100292.41;6120755;23;20388;-42
2022/06/26 02:38:15;;;;;;;2.78;0.57;;;;;;;8.81;100.00;100293.69;6118825;23;20042;-42
2022/06/26 02:40:41;;;;;;;1.65;0.38;;;;;;;8.79;100.00;100290.41;6119400;23;20082;-45
2022/06/26 02:43:07;;;;;;;1.00;0.20;;;;;;;8.80;100.00;100292.03;6120978;23;20033;-47
2022/06/26 02:45:32;;;;;;;6.65;1.25;;;;;;;8.85;100.00;100288.84;6120956;23;20009;-42
2022/06/26 02:47:58;;;;;;;2.72;0.30;;;;;;;8.84;100.00;100300.44;6117144;23;20100;-43
2022/06/26 02:50:23;;;;;;;0.70;0.57;;;;;;;8.77;100.00;100292.41;6120463;23;20315;-44
2022/06/26 02:52:49;;;;;;;7.32;0.50;;;;;;;8.77;100.00;100294.25;6116797;23;20089;-45
2022/06/26 02:55:14;;;;;;;1.52;0.50;;;;;;;8.71;100.00;100299.25;6120362;23;20380;-46
2022/06/26 02:57:40;;;;;;;1.75;0.88;;;;;;;8.72;100.00;100300.91;6120273;23;20016;-45
2022/06/26 03:00:09;;;;;;;2.97;0.45;;;;;;;8.71;100.00;100301.09;6120052;23;20030;-43
2022/06/26 03:02:34;;;;;;;0.22;0.00;;;;;;;8.61;100.00;100290.78;6120194;23;20005;-44
2022/06/26 03:05:00;;;;;;;5.78;1.33;;;;;;;8.50;100.00;100292.06;6119855;23;20056;-43
2022/06/26 03:07:25;;;;;;;3.20;0.45;;;;;;;8.51;100.00;100298.97;6121094;23;20016;-46
2022/06/26 03:09:50;;;;;;;1.60;0.55;;;;;;;8.57;100.00;100304.53;6119528;23;20546;-43
2022/06/26 03:12:16;;;;;;;3.95;0.68;;;;;;;8.50;100.00;100305.28;6118405;23;20416;-44
2022/06/26 03:14:41;;;;;;;5.05;0.50;;;;;;;8.55;100.00;100310.03;6120321;23;20013;-45
2022/06/26 03:17:07;;;;;;;2.83;0.10;;;;;;;8.74;100.00;100311.28;6119722;23;20010;-43
2022/06/26 03:19:32;;;;;;;11.23;2.13;;;;;;;8.83;100.00;100318.13;6118024;23;20010;-43
2022/06/26 03:21:58;;;;;;;2.17;0.20;;;;;;;8.74;100.00;100320.03;6120400;23;20013;-46
2022/06/26 03:24:24;;;;;;;1.95;0.20;;;;;;;8.67;100.00;100316.50;6119350;23;20006;-45
2022/06/26 03:26:49;;;;;;;0.52;0.08;;;;;;;8.59;100.00;100311.28;6119372;23;20014;-48
2022/06/26 03:29:14;;;;;;;4.30;0.30;;;;;;;8.57;100.00;100323.03;6119438;23;20010;-46
2022/06/26 03:31:40;;;;;;;1.23;0.43;;;;;;;8.59;100.00;100318.41;6118298;23;20017;-45
2022/06/26 03:34:07;;;;;;;1.10;0.10;;;;;;;8.56;100.00;100324.88;6119409;23;20077;-46
2022/06/26 03:36:33;;;;;;;2.80;0.43;;;;;;;8.49;100.00;100327.44;6117926;23;20021;-44
2022/06/26 03:38:59;;;;;;;1.90;0.10;;;;;;;8.44;100.00;100324.50;6119279;23;20006;-45
2022/06/26 03:41:25;;;;;;;0.52;0.00;;;;;;;8.32;100.00;100328.56;6120859;23;20010;-46
2022/06/26 03:43:50;;;;;;;5.10;0.43;;;;;;;8.28;100.00;100322.78;6120878;23;20014;-45
2022/06/26 03:46:16;;;;;;;3.95;0.20;;;;;;;8.33;100.00;100327.53;6120731;23;20021;-43
2022/06/26 03:48:41;;;;;;;1.80;0.32;;;;;;;8.38;100.00;100330.47;6120633;23;20293;-47
2022/06/26 03:51:08;;;;;;;1.50;0.00;;;;;;;8.49;100.00;100329.22;6121599;23;20432;-46
2022/06/26 03:53:34;;;;;;;4.63;0.50;;;;;;;8.49;100.00;100326.59;6120593;23;20037;-43
2022/06/26 03:56:00;;;;;;;0.35;0.10;;;;;;;8.44;100.00;100329.78;6118298;23;20006;-44
2022/06/26 03:58:25;;;;;;;0.57;0.20;;;;;;;8.45;100.00;100325.31;6120566;23;20006;-44
2022/06/26 04:00:51;;;;;;;4.40;0.20;;;;;;;8.50;100.00;100325.59;6119280;23;20002;-43
2022/06/26 04:03:17;;;;;;;3.20;0.20;;;;;;;8.52;100.00;100324.41;6120861;23;20005;-44
2022/06/26 04:05:43;;;;;;;5.15;1.48;;;;;;;8.51;100.00;100330.69;6120887;23;20029;-42
2022/06/26 04:08:09;;;;;;;3.55;0.15;;;;;;;8.54;100.00;100332.16;6121165;23;20010;-46
2022/06/26 04:10:35;;;;;;;3.40;0.82;;;;;;;8.51;100.00;100335.16;6120675;23;20089;-46
2022/06/26 04:13:04;;;;;;;1.05;0.38;;;;;;;8.49;100.00;100343.28;6120265;23;20014;-50
2022/06/26 04:15:31;;;;;;;3.03;0.30;;;;;;;8.49;100.00;100345.09;6119174;23;20010;-43
2022/06/26 04:17:57;;;;;;;6.50;1.77;;;;;;;8.45;100.00;100347.28;6120420;23;20010;-43
2022/06/26 04:20:23;;;;;;;5.95;0.70;;;;;;;8.42;100.00;100349.47;6120897;23;20424;-41
2022/06/26 04:23:10;;;;;;;0.95;0.20;;;;;;;8.38;100.00;100351.59;6119976;23;20034;-45
2022/06/26 04:25:38;;;;;;;1.88;0.28;;;;;;;8.39;100.00;100350.66;6120907;23;20017;-47
2022/06/26 04:28:05;;;;;;;1.75;0.85;;;;;;;8.51;100.00;100356.31;6120940;23;20551;-44
2022/06/26 04:30:31;;;;;;;1.67;0.82;;;;;;;8.66;100.00;100362.41;6120533;23;20014;-44
2022/06/26 04:32:56;;;;;;;2.00;0.10;;;;;;;8.76;100.00;100364.81;6119426;23;20013;-42
2022/06/26 04:35:22;;;;;;;3.38;1.02;;;;;;;8.81;100.00;100364.25;6120072;23;20041;-54
2022/06/26 04:37:48;;;;;;;1.40;0.05;;;;;;;8.90;100.00;100360.50;6121308;23;20392;-43
2022/06/26 04:40:14;;;;;;;2.50;1.10;;;;;;;8.90;100.00;100363.97;6121578;23;20013;-42
2022/06/26 04:42:41;;;;;;;9.23;1.85;;;;;;;8.95;100.00;100363.44;6119366;23;20336;-44
2022/06/26 04:45:08;;;;;;;0.80;0.08;;;;;;;8.98;100.00;100367.53;6120371;23;20742;-44
2022/06/26 04:47:34;;;;;;;6.28;1.45;;;;;;;8.95;100.00;100369.53;6121224;23;20013;-42
2022/06/26 04:50:00;;;;;;;0.80;0.35;;;;;;;8.94;100.00;100362.63;6121558;23;20006;-41
2022/06/26 04:52:25;;;;;;;0.80;0.10;;;;;;;8.92;100.00;100364.63;6120915;23;20010;-42
2022/06/26 04:54:50;;;;;;;2.55;0.25;;;;;;;8.91;100.00;100373.56;6120627;23;20332;-46
2022/06/26 04:57:16;;;;;;;1.55;0.10;;;;;;;8.91;100.00;100367.47;6121324;23;20008;-42
2022/06/26 04:59:43;;;;;;;1.02;0.43;;;;;;;8.99;100.00;100366.53;6120614;23;20254;-42
2022/06/26 05:02:10;;;;;;;1.63;0.38;;;;;;;9.09;100.00;100381.13;6121111;23;20064;-42
2022/06/26 05:04:36;;;;;;;3.42;0.30;;;;;;;9.15;100.00;100377.72;6120128;23;20006;-42
2022/06/26 05:07:01;;;;;;;1.45;0.10;;;;;;;9.23;100.00;100382.09;6120644;23;20014;-44
2022/06/26 05:09:27;;;;;;;4.20;0.88;;;;;;;9.25;100.00;100389.88;6120387;23;20014;-45
2022/06/26 05:11:52;;;;;;;4.97;0.40;;;;;;;9.26;100.00;100384.38;6119481;23;20348;-44
2022/06/26 05:14:18;;;;;;;1.17;0.57;;;;;;;9.31;100.00;100376.69;6120846;23;20057;-45
2022/06/26 05:16:45;;;;;;;3.28;0.40;;;;;;;9.38;100.00;100385.53;6120472;23;20069;-45
2022/06/26 05:19:10;;;;;;;1.55;0.28;;;;;;;9.41;100.00;100381.72;6121298;23;20436;-42
2022/06/26 05:21:36;;;;;;;1.40;0.30;;;;;;;9.39;100.00;100387.19;6120432;23;20006;-42
2022/06/26 05:24:02;;;;;;;0.60;0.20;;;;;;;9.41;100.00;100384.34;6121599;23;20081;-42
2022/06/26 05:26:27;;;;;;;2.30;0.30;;;;;;;9.46;100.00;100394.41;6119563;23;20006;-45
2022/06/26 05:28:53;;;;;;;2.03;0.60;;;;;;;9.50;100.00;100393.00;6121197;23;20009;-43
2022/06/26 05:31:19;;;;;;;0.40;0.40;;;;;;;9.57;100.00;100393.91;6121220;23;20010;-42
2022/06/26 05:33:45;;;;;;;3.58;0.35;;;;;;;9.75;100.00;100389.00;6120556;23;20002;-46
2022/06/26 05:36:10;;;;;;;4.53;0.95;;;;;;;10.10;100.00;100393.66;6118396;23;20035;-42
2022/06/26 05:38:37;;;;;;;5.40;0.70;;;;;;;10.42;100.00;100389.66;6119647;23;20020;-43
2022/06/26 05:41:03;;;;;;;7.10;1.00;;;;;;;10.60;100.00;100389.19;6121412;23;20468;-45
2022/06/26 05:43:29;;;;;;;1.77;0.38;;;;;;;10.60;100.00;100384.69;6121207;23;20014;-53
2022/06/26 05:45:54;;;;;;;0.75;0.20;;;;;;;10.59;100.00;100374.28;6120715;23;20304;-44
2022/06/26 05:48:20;;;;;;;5.25;0.75;;;;;;;10.61;100.00;100374.91;6119295;23;20010;-45
2022/06/26 05:50:46;;;;;;;1.73;0.30;;;;;;;10.56;100.00;100378.16;6120932;23;20006;-47
2022/06/26 05:53:12;;;;;;;0.38;0.30;;;;;;;10.55;100.00;100381.78;6118077;23;20339;-45
2022/06/26 05:55:38;;;;;;;2.40;0.25;;;;;;;10.51;100.00;100377.06;6118278;23;20009;-47
2022/06/26 05:58:05;;;;;;;3.47;0.30;;;;;;;10.43;100.00;100378.06;6121023;23;20334;-47
2022/06/26 06:00:31;;;;;;;9.63;2.22;;;;;;;10.36;100.00;100382.47;6118469;23;20336;-42
2022/06/26 06:02:57;;;;;;;3.60;0.40;;;;;;;10.30;100.00;100384.06;6119996;23;20384;-45
2022/06/26 06:05:23;;;;;;;3.40;0.55;;;;;;;10.33;100.00;100388.16;6120181;23;20581;-45
2022/06/26 06:07:49;;;;;;;1.65;0.10;;;;;;;10.44;100.00;100385.00;6118758;23;20420;-47
2022/06/26 06:10:14;;;;;;;2.50;0.50;;;;;;;10.51;100.00;100396.47;6120586;23;20009;-59
2022/06/26 06:12:41;;;;;;;2.85;0.20;;;;;;;10.64;100.00;100391.25;6112137;23;20002;-46
2022/06/26 06:15:07;;;;;;;3.22;0.28;;;;;;;10.77;100.00;100393.19;6113920;23;20355;-46
2022/06/26 06:17:35;;;;;;;1.25;0.15;;;;;;;10.80;100.00;100394.63;6113065;23;20384;-50
2022/06/26 06:20:03;;;;;;;3.67;1.52;;;;;;;10.85;100.00;100394.84;6111669;23;20109;-45
2022/06/26 06:22:29;;;;;;;0.28;0.10;;;;;;;10.87;100.00;100392.84;6117333;23;20002;-42
2022/06/26 06:24:54;;;;;;;11.27;1.73;;;;;;;10.90;100.00;100387.13;6117016;23;20020;-43
2022/06/26 06:27:20;;;;;;;3.10;0.20;;;;;;;10.98;100.00;100392.28;6117098;23;20332;-45
2022/06/26 06:29:45;;;;;;;4.65;0.40;;;;;;;11.16;100.00;100385.63;6116536;23;20010;-44
2022/06/26 06:32:11;;;;;;;0.73;0.40;;;;;;;11.23;100.00;100389.13;6114153;23;20164;-43
2022/06/26 06:34:36;;;;;;;6.22;0.85;;;;;;;11.29;100.00;100385.69;6114487;23;20014;-43
2022/06/26 06:37:02;;;;;;;1.05;0.10;;;;;;;11.37;100.00;100387.38;6117279;23;20020;-46
2022/06/26 06:39:27;;;;;;;3.03;1.30;;;;;;;11.49;100.00;100388.44;6115021;23;20033;-43
2022/06/26 06:41:52;;;;;;;3.10;0.52;;;;;;;11.57;100.00;100383.75;6116940;23;20010;-45
2022/06/26 06:44:18;;;;;;;4.68;0.73;;;;;;;11.60;100.00;100385.19;6119978;23;20179;-53
2022/06/26 06:46:43;;;;;;;3.38;0.40;;;;;;;11.74;100.00;100386.84;6121357;23;20131;-59
2022/06/26 06:49:09;;;;;;;13.40;1.50;;;;;;;11.95;100.00;100369.97;6119820;23;20037;-45
2022/06/26 06:51:34;;;;;;;2.88;0.68;;;;;;;12.15;100.00;100385.09;6120192;23;20025;-49
2022/06/26 06:53:59;;;;;;;3.58;0.88;;;;;;;12.32;100.00;100362.41;6116407;23;20106;-45
2022/06/26 06:56:25;;;;;;;2.92;0.45;;;;;;;12.53;100.00;100363.22;6119269;23;20020;-43
2022/06/26 06:58:50;;;;;;;10.60;2.25;;;;;;;12.84;100.00;100365.22;6115361;23;20002;-45
2022/06/26 07:01:16;;;;;;;5.75;0.10;;;;;;;13.00;100.00;100359.44;6107490;23;20363;-49
2022/06/26 07:03:41;;;;;;;2.85;0.55;;;;;;;13.17;100.00;100366.97;6118643;23;20002;-48
2022/06/26 07:06:07;;;;;;;3.72;0.57;;;;;;;13.28;100.00;100361.81;6117430;23;20006;-45
2022/06/26 07:08:32;;;;;;;3.65;0.15;;;;;;;13.37;100.00;100353.56;6118030;23;20014;-52
2022/06/26 07:10:57;;;;;;;8.30;1.33;;;;;;;13.45;100.00;100350.66;6110588;23;20020;-51
2022/06/26 07:13:23;;;;;;;1.80;0.10;;;;;;;13.64;100.00;100367.59;6112118;23;20025;-53
2022/06/26 07:15:48;;;;;;;6.90;0.90;;;;;;;13.77;100.00;100370.16;6110055;23;20017;-48
2022/06/26 07:18:14;;;;;;;9.95;2.53;;;;;;;13.77;100.00;100353.38;6114080;23;20006;-46
2022/06/26 07:20:39;;;;;;;6.45;0.38;;;;;;;13.62;100.00;100365.13;6114884;23;20041;-45
2022/06/26 07:23:04;;;;;;;3.38;0.13;;;;;;;13.60;100.00;100366.38;6116083;23;20010;-49
2022/06/26 07:25:30;;;;;;;3.25;0.57;;;;;;;13.60;100.00;100369.03;6119720;23;20096;-46
2022/06/26 07:27:56;;;;;;;2.70;0.32;;;;;;;13.64;100.00;100365.75;6117746;23;20328;-50
2022/06/26 07:30:21;;;;;;;4.55;0.63;;;;;;;13.81;100.00;100375.88;6118049;23;20013;-55
2022/06/26 07:32:47;;;;;;;6.80;1.02;;;;;;;13.72;100.00;100367.31;6117619;23;20487;-57
2022/06/26 07:35:12;;;;;;;4.68;0.13;;;;;;;13.64;100.00;100355.06;6119390;23;20068;-48
2022/06/26 07:37:37;;;;;;;2.65;1.05;;;;;;;13.86;100.00;100362.72;6114725;23;20071;-46
2022/06/26 07:40:05;;;;;;;2.30;1.10;;;;;;;14.10;100.00;100364.63;6116960;23;20437;-50
2022/06/26 07:42:30;;;;;;;3.90;0.80;;;;;;;14.36;100.00;100370.78;6118883;23;20010;-44
2022/06/26 07:44:55;;;;;;;5.25;0.28;;;;;;;14.66;100.00;100370.91;6118498;23;20013;-49
2022/06/26 07:47:21;;;;;;;1.73;0.50;;;;;;;14.87;100.00;100358.19;6116454;23;20037;-43
2022/06/26 07:49:46;;;;;;;3.83;0.43;;;;;;;15.05;100.00;100361.69;6116380;23;20014;-51
2022/06/26 07:52:12;;;;;;;2.17;0.47;;;;;;;15.00;100.00;100355.38;6113717;23;20042;-47
2022/06/26 07:54:37;;;;;;;7.60;0.55;;;;;;;14.80;100.00;100369.75;6116286;23;20081;-53
2022/06/26 07:57:03;;;;;;;4.75;0.70;;;;;;;14.76;100.00;100355.22;6116133;23;20014;-45
2022/06/26 07:59:28;;;;;;;5.53;0.98;;;;;;;14.94;100.00;100362.41;6117315;23;20030;-45
2022/06/26 08:01:54;;;;;;;7.13;1.25;;;;;;;14.96;100.00;100360.34;6119198;23;20073;-48
2022/06/26 08:04:19;;;;;;;4.10;0.30;;;;;;;14.83;100.00;100355.97;6119172;23;20077;-44
2022/06/26 08:06:44;;;;;;;5.43;0.77;;;;;;;15.03;100.00;100358.41;6118677;23;20380;-45
2022/06/26 08:09:10;;;;;;;4.95;0.35;;;;;;;15.49;100.00;100361.56;6119599;23;20009;-48
2022/06/26 08:11:35;;;;;;;2.00;0.20;;;;;;;15.82;100.00;100355.75;6119031;23;20010;-45
2022/06/26 08:14:01;;;;;;;2.67;0.10;;;;;;;15.73;100.00;100354.47;6120643;23;20075;-45
2022/06/26 08:16:26;;;;;;;5.10;0.28;;;;;;;15.76;100.00;100348.66;6118206;23;20013;-43
2022/06/26 08:18:52;;;;;;;4.35;1.15;;;;;;;15.60;100.00;100351.94;6117125;23;20052;-44
2022/06/26 08:24:01;;;;;;;2.22;0.10;;;;;;;15.44;100.00;100353.41;6116255;23;20021;-44
2022/06/26 08:26:27;;;;;;;6.63;0.60;;;;;;;15.48;100.00;100350.03;6112560;23;20006;-48
2022/06/26 08:28:52;;;;;;;3.42;0.43;;;;;;;15.71;100.00;100340.50;6112251;23;20692;-49
2022/06/26 08:31:18;;;;;;;4.00;0.30;;;;;;;15.98;100.00;100346.28;6114652;23;20006;-48
2022/06/26 08:33:44;;;;;;;7.47;1.27;;;;;;;16.14;100.00;100345.59;6112997;23;20292;-50
2022/06/26 08:36:09;;;;;;;3.33;0.17;;;;;;;16.33;100.00;100354.31;6111235;23;20010;-48
2022/06/26 08:38:35;;;;;;;1.50;0.85;;;;;;;16.50;100.00;100341.06;6108930;23;20014;-47
2022/06/26 08:41:01;;;;;;;4.43;0.47;;;;;;;16.85;100.00;100348.28;6113008;23;20403;-49
2022/06/26 08:43:27;;;;;;;2.00;0.52;;;;;;;17.04;100.00;100348.94;6112307;23;20010;-44
2022/06/26 08:45:54;;;;;;;2.13;0.90;;;;;;;17.06;100.00;100352.19;6110703;23;20165;-52
2022/06/26 08:48:24;;;;;;;3.08;0.85;;;;;;;16.59;100.00;100370.97;6108869;23;20013;-45
2022/06/26 08:50:49;;;;;;;3.08;0.30;;;;;;;16.03;100.00;100361.59;6110983;23;20356;-45
2022/06/26 08:53:16;;;;;;;0.68;0.25;;;;;;;15.66;100.00;100359.84;6107026;23;20079;-44
2022/06/26 08:55:42;;;;;;;2.53;0.25;;;;;;;15.83;100.00;100368.09;6111849;23;20503;-47
2022/06/26 08:58:07;;;;;;;4.30;1.98;;;;;;;16.07;100.00;100365.47;6113560;23;20077;-49
2022/06/26 09:00:33;;;;;;;2.20;0.30;;;;;;;16.19;100.00;100373.53;6113527;23;20788;-46
2022/06/26 09:02:58;;;;;;;3.83;0.20;;;;;;;16.30;100.00;100362.00;6115109;23;20368;-45
2022/06/26 09:05:24;;;;;;;2.47;0.30;;;;;;;16.46;100.00;100366.66;6114613;23;20463;-55
2022/06/26 09:07:54;;;;;;;2.90;0.30;;;;;;;16.59;100.00;100370.97;6114153;23;20068;-52
2022/06/26 09:10:20;;;;;;;3.70;0.20;;;;;;;16.72;100.00;100360.00;6109833;23;20725;-46
2022/06/26 09:12:54;;;;;;;3.67;0.40;;;;;;;16.94;100.00;100362.13;6109372;23;20352;-43
2022/06/26 09:15:21;;;;;;;6.03;0.45;;;;;;;17.15;100.00;100356.13;6112009;23;20123;-50
2022/06/26 09:18:05;;;;;;;6.68;0.93;;;;;;;17.11;100.00;100368.38;6114659;23;20005;-53
2022/06/26 09:20:33;;;;;;;6.72;1.33;;;;;;;17.10;100.00;100358.72;6117328;23;20034;-52
2022/06/26 09:23:00;;;;;;;3.45;0.47;;;;;;;17.19;100.00;100376.06;6114063;23;20057;-46
2022/06/26 09:25:39;;;;;;;4.90;0.68;;;;;;;17.28;100.00;100363.09;6116794;23;20010;-47
2022/06/26 09:28:14;;;;;;;7.38;1.05;;;;;;;17.55;100.00;100366.00;6104529;23;20018;-45
2022/06/26 09:31:00;;;;;;;3.15;1.10;;;;;;;17.95;100.00;100362.47;6109207;23;20013;-48
2022/06/26 09:33:31;;;;;;;3.55;0.95;;;;;;;18.23;100.00;100352.72;6109502;23;20021;-46
2022/06/26 09:35:57;;;;;;;3.38;0.30;;;;;;;18.68;100.00;100365.19;6115411;23;20017;-51
2022/06/26 09:38:26;;;;;;;2.40;0.43;;;;;;;18.29;100.00;100382.06;6108598;23;20014;-45
2022/06/26 09:41:04;;;;;;;3.17;0.15;;;;;;;18.22;100.00;100378.72;6110214;23;20026;-52
2022/06/26 09:43:38;;;;;;;3.65;0.20;;;;;;;18.38;100.00;100371.75;6104412;23;20048;-42
2022/06/26 09:46:05;;;;;;;2.85;0.35;;;;;;;18.69;100.00;100369.47;6109346;23;20567;-46
2022/06/26 09:48:32;;;;;;;1.30;0.40;;;;;;;18.67;100.00;100377.00;6108107;23;20117;-46
2022/06/26 09:50:58;;;;;;;2.25;0.40;;;;;;;18.91;100.00;100370.38;6112220;23;20317;-44
2022/06/26 09:53:25;;;;;;;2.13;0.65;;;;;;;18.92;100.00;100382.75;6109638;23;20040;-48
2022/06/26 09:55:53;;;;;;;0.50;0.10;;;;;;;18.88;100.00;100368.19;6112512;23;20478;-50
2022/06/26 09:58:19;;;;;;;0.75;0.40;;;;;;;19.09;100.00;100379.19;6112410;23;20371;-44
2022/06/26 10:06:26;;;;;;;0.45;0.10;;;;;;;18.19;100.00;100398.00;6112092;23;20025;-45
2022/06/26 10:09:13;;;;;;;4.20;0.40;;;;;;;17.86;100.00;100396.09;6115127;23;20483;-43
2022/06/26 10:11:40;;;;;;;1.65;0.50;;;;;;;18.27;100.00;100383.34;6115943;23;20088;-51
2022/06/26 10:14:08;;;;;;;4.18;0.68;;;;;;;18.36;100.00;100391.84;6114595;23;20466;-49
2022/06/26 10:17:05;;;;;;;5.43;0.60;;;;;;;18.82;100.00;100377.25;6113379;23;20076;-47
2022/06/26 10:20:00;;;;;;;0.35;0.10;;;;;;;19.46;100.00;100382.03;6114497;23;20484;-48
2022/06/26 10:22:26;;;;;;;3.35;0.32;;;;;;;19.54;100.00;100386.16;6115260;23;20009;-51
2022/06/26 10:24:55;;;;;;;2.22;0.20;;;;;;;19.33;100.00;100366.28;6113105;23;20017;-43
2022/06/26 10:27:24;;;;;;;2.67;0.13;;;;;;;19.64;100.00;100372.81;6115472;23;20025;-48
2022/06/26 10:29:50;;;;;;;7.32;0.32;;;;;;;19.76;100.00;100381.56;6113717;23;20013;-43
2022/06/26 10:32:23;;;;;;;3.90;1.00;;;;;;;19.65;100.00;100382.53;6115485;23;20006;-54
2022/06/26 10:34:58;;;;;;;1.60;0.15;;;;;;;19.87;97.64;100373.59;6113499;23;20448;-45
2022/06/26 10:37:24;;;;;;;6.95;0.63;;;;;;;19.68;99.16;100384.72;6111408;23;20022;-50
2022/06/26 10:39:52;;;;;;;2.75;0.55;;;;;;;19.65;94.33;100373.66;6112453;23;20021;-47
2022/06/26 10:45:27;;;;;;;4.65;0.43;;;;;;;19.43;95.51;100393.28;6114076;23;20441;-51
2022/06/26 10:48:00;;;;;;;8.05;0.45;;;;;;;19.29;100.00;100382.13;6110696;23;20029;-49
2022/06/26 10:50:31;;;;;;;8.88;1.35;;;;;;;18.97;100.00;100384.66;6113569;23;20085;-47
2022/06/26 10:53:18;;;;;;;1.43;0.20;;;;;;;19.37;100.00;100386.25;6114843;23;20343;-48
2022/06/26 10:55:56;;;;;;;1.80;0.20;;;;;;;19.71;100.00;100400.34;6113978;23;20053;-50
2022/06/26 10:58:31;;;;;;;4.47;0.50;;;;;;;19.93;100.00;100404.84;6113350;23;20357;-46
2022/06/26 11:01:03;;;;;;;3.38;0.70;;;;;;;19.85;92.67;100392.69;6111059;23;20014;-47
2022/06/26 11:03:30;;;;;;;5.85;0.40;;;;;;;19.88;97.36;100386.81;6113080;23;20125;-44
2022/06/26 11:06:10;;;;;;;2.58;0.35;;;;;;;19.57;92.64;100386.47;6114769;23;20013;-46
2022/06/26 11:08:45;;;;;;;2.85;0.88;;;;;;;19.63;96.16;100381.16;6109428;23;20304;-45
2022/06/26 11:11:14;;;;;;;0.75;0.20;;;;;;;19.63;94.55;100381.94;6112104;23;20383;-45
2022/06/26 11:13:53;;;;;;;3.67;0.30;;;;;;;19.53;95.84;100384.53;6111927;23;20009;-51
2022/06/26 11:16:47;;;;;;;2.78;0.32;;;;;;;19.74;94.97;100383.69;6112939;23;20017;-46
2022/06/26 11:19:23;;;;;;;5.07;1.25;;;;;;;20.19;97.85;100379.00;6109392;23;20014;-44
2022/06/26 11:21:48;;;;;;;1.92;0.82;;;;;;;20.31;94.01;100376.91;6110178;23;20014;-55
2022/06/26 11:24:14;;;;;;;2.25;0.82;;;;;;;20.26;92.46;100368.81;6110009;23;20472;-50
2022/06/26 11:26:40;;;;;;;1.38;0.20;;;;;;;20.20;91.94;100375.22;6106082;23;20013;-48
2022/06/26 11:29:08;;;;;;;4.43;1.20;;;;;;;20.25;97.20;100376.06;6111983;23;20010;-55
2022/06/26 11:31:34;;;;;;;2.75;1.17;;;;;;;20.07;94.72;100381.06;6110705;23;20153;-43
2022/06/26 11:34:11;;;;;;;3.00;0.40;;;;;;;20.27;91.28;100370.44;6112613;23;20013;-50
2022/06/26 11:36:57;;;;;;;2.40;0.10;;;;;;;20.67;85.38;100369.91;6109843;23;20423;-59